sensor_id;sensor_type;location;lat;lon;timestamp;P1;durP1;ratioP1;P2;durP2;ratioP2
9445;SDS011;4761;49.490;10.908;2022-09-17T00:02:21;0.70;;;0.50;;
9445;SDS011;4761;49.490;10.908;2022-09-17T00:04:48;0.50;;;0.50;;
9445;SDS011;4761;49.490;10.908;2022-09-17T00:07:14;0.93;;;0.60;;
9445;SDS011;4761;49.490;10.908;2022-09-17T00:09:39;1.07;;;0.60;;
9445;SDS011;4761;49.490;10.908;2022-09-17T00:12:05;0.60;;;0.60;;
9445;SDS011;4761;49.490;10.908;2022-09-17T00:14:31;1.07;;;0.60;;
9445;SDS011;4761;49.490;10.908;2022-09-17T00:16:56;1.23;;;0.63;;
9445;SDS011;4761;49.490;10.908;2022-09-17T00:19:22;1.10;;;0.80;;
9445;SDS011;4761;49.490;10.908;2022-09-17T00:21:49;0.70;;;0.60;;
9445;SDS011;4761;49.490;10.908;2022-09-17T00:24:15;0.90;;;0.70;;
9445;SDS011;4761;49.490;10.908;2022-09-17T00:26:42;1.33;;;0.63;;
9445;SDS011;4761;49.490;10.908;2022-09-17T00:29:08;0.93;;;0.57;;
9445;SDS011;4761;49.490;10.908;2022-09-17T00:31:34;1.47;;;0.70;;
9445;SDS011;4761;49.490;10.908;2022-09-17T00:34:01;1.43;;;0.70;;
9445;SDS011;4761;49.490;10.908;2022-09-17T00:36:28;0.70;;;0.60;;
9445;SDS011;4761;49.490;10.908;2022-09-17T00:38:55;0.50;;;0.50;;
9445;SDS011;4761;49.490;10.908;2022-09-17T00:41:23;0.40;;;0.40;;
9445;SDS011;4761;49.490;10.908;2022-09-17T00:44:00;0.97;;;0.73;;
9445;SDS011;4761;49.490;10.908;2022-09-17T00:46:46;1.40;;;0.60;;
9445;SDS011;4761;49.490;10.908;2022-09-17T00:51:51;1.00;;;0.80;;
9445;SDS011;4761;49.490;10.908;2022-09-17T00:54:21;1.17;;;0.70;;
9445;SDS011;4761;49.490;10.908;2022-09-17T00:56:48;1.50;;;0.80;;
9445;SDS011;4761;49.490;10.908;2022-09-17T00:59:16;2.17;;;1.00;;
9445;SDS011;4761;49.490;10.908;2022-09-17T01:01:43;1.50;;;0.90;;
9445;SDS011;4761;49.490;10.908;2022-09-17T01:04:17;1.63;;;0.80;;
9445;SDS011;4761;49.490;10.908;2022-09-17T01:12:50;2.37;;;0.90;;
9445;SDS011;4761;49.490;10.908;2022-09-17T01:21:11;3.10;;;1.03;;
9445;SDS011;4761;49.490;10.908;2022-09-17T01:24:35;2.63;;;0.93;;
9445;SDS011;4761;49.490;10.908;2022-09-17T01:35:54;1.80;;;0.93;;
9445;SDS011;4761;49.490;10.908;2022-09-17T01:38:14;2.43;;;1.23;;
9445;SDS011;4761;49.490;10.908;2022-09-17T01:41:13;2.30;;;1.37;;
9445;SDS011;4761;49.490;10.908;2022-09-17T01:46:52;2.50;;;0.90;;
9445;SDS011;4761;49.490;10.908;2022-09-17T01:49:28;2.03;;;1.10;;
9445;SDS011;4761;49.490;10.908;2022-09-17T01:51:56;3.47;;;1.20;;
9445;SDS011;4761;49.490;10.908;2022-09-17T01:54:26;2.67;;;1.07;;
9445;SDS011;4761;49.490;10.908;2022-09-17T02:00:04;3.90;;;1.37;;
9445;SDS011;4761;49.490;10.908;2022-09-17T02:02:35;3.13;;;1.00;;
9445;SDS011;4761;49.490;10.908;2022-09-17T02:07:55;1.23;;;0.87;;
9445;SDS011;4761;49.490;10.908;2022-09-17T02:10:28;1.83;;;1.00;;
9445;SDS011;4761;49.490;10.908;2022-09-17T02:13:06;1.93;;;0.90;;
9445;SDS011;4761;49.490;10.908;2022-09-17T02:15:39;1.47;;;0.90;;
9445;SDS011;4761;49.490;10.908;2022-09-17T02:18:10;2.37;;;1.20;;
9445;SDS011;4761;49.490;10.908;2022-09-17T02:20:47;1.60;;;0.90;;
9445;SDS011;4761;49.490;10.908;2022-09-17T02:23:22;2.27;;;0.97;;
9445;SDS011;4761;49.490;10.908;2022-09-17T02:25:56;2.07;;;1.10;;
9445;SDS011;4761;49.490;10.908;2022-09-17T02:28:28;2.53;;;1.00;;
9445;SDS011;4761;49.490;10.908;2022-09-17T02:30:57;1.57;;;0.73;;
9445;SDS011;4761;49.490;10.908;2022-09-17T02:33:22;2.43;;;1.10;;
9445;SDS011;4761;49.490;10.908;2022-09-17T02:35:49;2.27;;;1.17;;
9445;SDS011;4761;49.490;10.908;2022-09-17T02:38:24;3.27;;;1.30;;
9445;SDS011;4761;49.490;10.908;2022-09-17T02:40:53;1.97;;;1.10;;
9445;SDS011;4761;49.490;10.908;2022-09-17T02:49:02;3.63;;;1.00;;
9445;SDS011;4761;49.490;10.908;2022-09-17T02:54:41;3.83;;;1.13;;
9445;SDS011;4761;49.490;10.908;2022-09-17T02:57:37;1.80;;;1.07;;
9445;SDS011;4761;49.490;10.908;2022-09-17T03:00:11;2.17;;;1.10;;
9445;SDS011;4761;49.490;10.908;2022-09-17T03:05:34;2.17;;;0.90;;
9445;SDS011;4761;49.490;10.908;2022-09-17T03:08:02;2.73;;;1.23;;
9445;SDS011;4761;49.490;10.908;2022-09-17T03:10:27;2.73;;;0.90;;
9445;SDS011;4761;49.490;10.908;2022-09-17T03:12:56;2.07;;;1.00;;
9445;SDS011;4761;49.490;10.908;2022-09-17T03:15:22;2.03;;;1.10;;
9445;SDS011;4761;49.490;10.908;2022-09-17T03:17:47;2.70;;;1.10;;
9445;SDS011;4761;49.490;10.908;2022-09-17T03:20:13;2.20;;;1.20;;
9445;SDS011;4761;49.490;10.908;2022-09-17T03:22:40;1.97;;;0.97;;
9445;SDS011;4761;49.490;10.908;2022-09-17T03:25:06;1.90;;;1.00;;
9445;SDS011;4761;49.490;10.908;2022-09-17T03:27:31;2.77;;;1.07;;
9445;SDS011;4761;49.490;10.908;2022-09-17T03:29:57;2.70;;;1.10;;
9445;SDS011;4761;49.490;10.908;2022-09-17T03:32:23;1.67;;;0.90;;
9445;SDS011;4761;49.490;10.908;2022-09-17T03:34:48;2.97;;;1.10;;
9445;SDS011;4761;49.490;10.908;2022-09-17T03:37:14;3.20;;;1.30;;
9445;SDS011;4761;49.490;10.908;2022-09-17T03:39:40;3.13;;;1.20;;
9445;SDS011;4761;49.490;10.908;2022-09-17T03:42:05;2.43;;;1.10;;
9445;SDS011;4761;49.490;10.908;2022-09-17T03:44:31;2.47;;;1.00;;
9445;SDS011;4761;49.490;10.908;2022-09-17T03:46:56;4.10;;;1.10;;
9445;SDS011;4761;49.490;10.908;2022-09-17T03:49:22;3.03;;;1.20;;
9445;SDS011;4761;49.490;10.908;2022-09-17T03:51:50;2.80;;;1.30;;
9445;SDS011;4761;49.490;10.908;2022-09-17T03:54:16;2.03;;;0.90;;
9445;SDS011;4761;49.490;10.908;2022-09-17T03:56:41;1.77;;;1.00;;
9445;SDS011;4761;49.490;10.908;2022-09-17T03:59:07;2.07;;;1.00;;
9445;SDS011;4761;49.490;10.908;2022-09-17T04:01:33;2.93;;;1.17;;
9445;SDS011;4761;49.490;10.908;2022-09-17T04:04:00;1.40;;;0.77;;
9445;SDS011;4761;49.490;10.908;2022-09-17T04:06:25;2.10;;;1.00;;
9445;SDS011;4761;49.490;10.908;2022-09-17T04:08:51;3.47;;;1.20;;
9445;SDS011;4761;49.490;10.908;2022-09-17T04:11:17;3.87;;;1.20;;
9445;SDS011;4761;49.490;10.908;2022-09-17T04:13:43;2.47;;;1.00;;
9445;SDS011;4761;49.490;10.908;2022-09-17T04:16:08;3.00;;;1.10;;
9445;SDS011;4761;49.490;10.908;2022-09-17T04:18:35;2.70;;;1.00;;
9445;SDS011;4761;49.490;10.908;2022-09-17T04:21:01;4.83;;;1.07;;
9445;SDS011;4761;49.490;10.908;2022-09-17T04:23:26;4.10;;;1.37;;
9445;SDS011;4761;49.490;10.908;2022-09-17T04:25:52;2.53;;;1.10;;
9445;SDS011;4761;49.490;10.908;2022-09-17T04:28:17;3.23;;;1.00;;
9445;SDS011;4761;49.490;10.908;2022-09-17T04:30:43;2.60;;;1.20;;
9445;SDS011;4761;49.490;10.908;2022-09-17T04:33:08;4.60;;;1.17;;
9445;SDS011;4761;49.490;10.908;2022-09-17T04:35:34;2.77;;;1.10;;
9445;SDS011;4761;49.490;10.908;2022-09-17T04:38:00;3.10;;;1.00;;
9445;SDS011;4761;49.490;10.908;2022-09-17T04:40:26;4.60;;;1.23;;
9445;SDS011;4761;49.490;10.908;2022-09-17T04:42:55;2.67;;;1.10;;
9445;SDS011;4761;49.490;10.908;2022-09-17T04:45:23;2.97;;;1.40;;
9445;SDS011;4761;49.490;10.908;2022-09-17T04:47:49;3.17;;;1.23;;
9445;SDS011;4761;49.490;10.908;2022-09-17T04:50:19;3.10;;;1.00;;
9445;SDS011;4761;49.490;10.908;2022-09-17T04:52:45;3.57;;;1.20;;
9445;SDS011;4761;49.490;10.908;2022-09-17T04:55:10;2.23;;;1.00;;
9445;SDS011;4761;49.490;10.908;2022-09-17T04:57:36;3.23;;;1.40;;
9445;SDS011;4761;49.490;10.908;2022-09-17T05:00:02;2.93;;;1.10;;
9445;SDS011;4761;49.490;10.908;2022-09-17T05:02:30;3.30;;;1.30;;
9445;SDS011;4761;49.490;10.908;2022-09-17T05:04:56;3.97;;;1.00;;
9445;SDS011;4761;49.490;10.908;2022-09-17T05:07:23;2.97;;;1.10;;
9445;SDS011;4761;49.490;10.908;2022-09-17T05:09:48;1.63;;;1.00;;
9445;SDS011;4761;49.490;10.908;2022-09-17T05:12:14;2.87;;;1.13;;
9445;SDS011;4761;49.490;10.908;2022-09-17T05:14:39;2.07;;;1.13;;
9445;SDS011;4761;49.490;10.908;2022-09-17T05:17:05;3.60;;;1.40;;
9445;SDS011;4761;49.490;10.908;2022-09-17T05:19:30;2.90;;;1.10;;
9445;SDS011;4761;49.490;10.908;2022-09-17T05:21:56;3.90;;;1.13;;
9445;SDS011;4761;49.490;10.908;2022-09-17T05:24:21;2.50;;;1.07;;
9445;SDS011;4761;49.490;10.908;2022-09-17T05:26:47;2.53;;;1.20;;
9445;SDS011;4761;49.490;10.908;2022-09-17T05:29:12;3.17;;;1.03;;
9445;SDS011;4761;49.490;10.908;2022-09-17T05:31:38;2.33;;;1.00;;
9445;SDS011;4761;49.490;10.908;2022-09-17T05:34:03;2.97;;;0.90;;
9445;SDS011;4761;49.490;10.908;2022-09-17T05:36:29;2.20;;;1.00;;
9445;SDS011;4761;49.490;10.908;2022-09-17T05:38:54;3.20;;;1.10;;
9445;SDS011;4761;49.490;10.908;2022-09-17T05:41:20;3.70;;;1.03;;
9445;SDS011;4761;49.490;10.908;2022-09-17T05:43:46;1.10;;;0.67;;
9445;SDS011;4761;49.490;10.908;2022-09-17T05:46:11;3.23;;;1.07;;
9445;SDS011;4761;49.490;10.908;2022-09-17T05:48:37;2.43;;;1.10;;
9445;SDS011;4761;49.490;10.908;2022-09-17T05:51:02;2.10;;;0.87;;
9445;SDS011;4761;49.490;10.908;2022-09-17T05:53:28;1.40;;;0.80;;
9445;SDS011;4761;49.490;10.908;2022-09-17T05:55:57;2.47;;;0.90;;
9445;SDS011;4761;49.490;10.908;2022-09-17T05:58:23;3.17;;;1.20;;
9445;SDS011;4761;49.490;10.908;2022-09-17T06:00:49;1.17;;;0.80;;
9445;SDS011;4761;49.490;10.908;2022-09-17T06:03:16;1.97;;;1.17;;
9445;SDS011;4761;49.490;10.908;2022-09-17T06:05:43;1.57;;;0.93;;
9445;SDS011;4761;49.490;10.908;2022-09-17T06:08:17;1.13;;;0.70;;
9445;SDS011;4761;49.490;10.908;2022-09-17T06:10:43;0.63;;;0.60;;
9445;SDS011;4761;49.490;10.908;2022-09-17T06:13:08;0.70;;;0.60;;
9445;SDS011;4761;49.490;10.908;2022-09-17T06:15:34;1.13;;;0.70;;
9445;SDS011;4761;49.490;10.908;2022-09-17T06:17:59;1.23;;;0.70;;
9445;SDS011;4761;49.490;10.908;2022-09-17T06:20:25;0.87;;;0.50;;
9445;SDS011;4761;49.490;10.908;2022-09-17T06:22:57;0.70;;;0.50;;
9445;SDS011;4761;49.490;10.908;2022-09-17T06:25:23;1.33;;;0.60;;
9445;SDS011;4761;49.490;10.908;2022-09-17T06:27:49;0.70;;;0.60;;
9445;SDS011;4761;49.490;10.908;2022-09-17T06:30:14;0.97;;;0.70;;
9445;SDS011;4761;49.490;10.908;2022-09-17T06:32:40;0.50;;;0.50;;
9445;SDS011;4761;49.490;10.908;2022-09-17T06:35:06;0.80;;;0.60;;
9445;SDS011;4761;49.490;10.908;2022-09-17T06:37:32;1.07;;;0.53;;
9445;SDS011;4761;49.490;10.908;2022-09-17T06:39:58;0.87;;;0.50;;
9445;SDS011;4761;49.490;10.908;2022-09-17T06:42:27;0.90;;;0.53;;
9445;SDS011;4761;49.490;10.908;2022-09-17T06:44:52;0.60;;;0.50;;
9445;SDS011;4761;49.490;10.908;2022-09-17T06:47:18;1.13;;;0.68;;
9445;SDS011;4761;49.490;10.908;2022-09-17T06:49:44;0.70;;;0.50;;
9445;SDS011;4761;49.490;10.908;2022-09-17T06:52:10;0.90;;;0.70;;
9445;SDS011;4761;49.490;10.908;2022-09-17T06:54:35;1.13;;;0.80;;
9445;SDS011;4761;49.490;10.908;2022-09-17T06:57:01;0.88;;;0.60;;
9445;SDS011;4761;49.490;10.908;2022-09-17T06:59:27;0.50;;;0.40;;
9445;SDS011;4761;49.490;10.908;2022-09-17T07:01:52;1.55;;;0.73;;
9445;SDS011;4761;49.490;10.908;2022-09-17T07:04:18;1.02;;;0.60;;
9445;SDS011;4761;49.490;10.908;2022-09-17T07:06:44;0.75;;;0.68;;
9445;SDS011;4761;49.490;10.908;2022-09-17T07:09:10;0.70;;;0.50;;
9445;SDS011;4761;49.490;10.908;2022-09-17T07:11:36;0.75;;;0.57;;
9445;SDS011;4761;49.490;10.908;2022-09-17T07:14:05;0.77;;;0.70;;
9445;SDS011;4761;49.490;10.908;2022-09-17T07:16:31;0.65;;;0.65;;
9445;SDS011;4761;49.490;10.908;2022-09-17T07:18:59;0.88;;;0.50;;
9445;SDS011;4761;49.490;10.908;2022-09-17T07:21:26;1.10;;;0.70;;
9445;SDS011;4761;49.490;10.908;2022-09-17T07:23:52;1.13;;;0.50;;
9445;SDS011;4761;49.490;10.908;2022-09-17T07:26:17;1.98;;;0.80;;
9445;SDS011;4761;49.490;10.908;2022-09-17T07:28:43;1.38;;;0.65;;
9445;SDS011;4761;49.490;10.908;2022-09-17T07:31:09;1.00;;;0.60;;
9445;SDS011;4761;49.490;10.908;2022-09-17T07:33:36;1.08;;;0.70;;
9445;SDS011;4761;49.490;10.908;2022-09-17T07:36:03;1.52;;;0.60;;
9445;SDS011;4761;49.490;10.908;2022-09-17T07:38:30;1.77;;;0.90;;
9445;SDS011;4761;49.490;10.908;2022-09-17T07:43:25;0.68;;;0.50;;
9445;SDS011;4761;49.490;10.908;2022-09-17T07:45:52;1.27;;;0.90;;
9445;SDS011;4761;49.490;10.908;2022-09-17T07:48:20;1.60;;;0.82;;
9445;SDS011;4761;49.490;10.908;2022-09-17T07:50:46;1.55;;;0.75;;
9445;SDS011;4761;49.490;10.908;2022-09-17T07:53:12;1.45;;;0.90;;
9445;SDS011;4761;49.490;10.908;2022-09-17T07:55:38;1.27;;;0.85;;
9445;SDS011;4761;49.490;10.908;2022-09-17T07:58:03;0.98;;;0.77;;
9445;SDS011;4761;49.490;10.908;2022-09-17T08:00:29;0.82;;;0.70;;
9445;SDS011;4761;49.490;10.908;2022-09-17T08:02:55;1.30;;;0.70;;
9445;SDS011;4761;49.490;10.908;2022-09-17T08:05:22;1.30;;;0.90;;
9445;SDS011;4761;49.490;10.908;2022-09-17T08:07:52;0.73;;;0.70;;
9445;SDS011;4761;49.490;10.908;2022-09-17T08:10:18;0.93;;;0.70;;
9445;SDS011;4761;49.490;10.908;2022-09-17T08:12:49;1.17;;;0.95;;
9445;SDS011;4761;49.490;10.908;2022-09-17T08:15:18;1.80;;;1.00;;
9445;SDS011;4761;49.490;10.908;2022-09-17T08:17:46;1.77;;;0.90;;
9445;SDS011;4761;49.490;10.908;2022-09-17T08:20:12;1.33;;;0.80;;
9445;SDS011;4761;49.490;10.908;2022-09-17T08:22:39;2.35;;;0.75;;
9445;SDS011;4761;49.490;10.908;2022-09-17T08:25:06;2.40;;;0.80;;
9445;SDS011;4761;49.490;10.908;2022-09-17T08:27:32;1.02;;;0.93;;
9445;SDS011;4761;49.490;10.908;2022-09-17T08:29:58;1.20;;;0.70;;
9445;SDS011;4761;49.490;10.908;2022-09-17T08:32:24;1.60;;;1.00;;
9445;SDS011;4761;49.490;10.908;2022-09-17T08:34:50;1.65;;;0.85;;
9445;SDS011;4761;49.490;10.908;2022-09-17T08:37:18;1.23;;;0.70;;
9445;SDS011;4761;49.490;10.908;2022-09-17T08:39:43;2.35;;;0.90;;
9445;SDS011;4761;49.490;10.908;2022-09-17T08:44:43;1.17;;;0.90;;
9445;SDS011;4761;49.490;10.908;2022-09-17T08:50:06;1.38;;;1.00;;
9445;SDS011;4761;49.490;10.908;2022-09-17T08:55:44;1.65;;;0.90;;
9445;SDS011;4761;49.490;10.908;2022-09-17T08:58:39;1.63;;;1.00;;
9445;SDS011;4761;49.490;10.908;2022-09-17T09:03:44;2.08;;;0.95;;
9445;SDS011;4761;49.490;10.908;2022-09-17T09:06:17;2.35;;;0.90;;
9445;SDS011;4761;49.490;10.908;2022-09-17T09:08:48;1.77;;;0.70;;
9445;SDS011;4761;49.490;10.908;2022-09-17T09:11:28;2.00;;;0.90;;
9445;SDS011;4761;49.490;10.908;2022-09-17T09:14:18;1.15;;;0.95;;
9445;SDS011;4761;49.490;10.908;2022-09-17T09:16:51;1.63;;;1.23;;
9445;SDS011;4761;49.490;10.908;2022-09-17T09:19:26;2.95;;;1.20;;
9445;SDS011;4761;49.490;10.908;2022-09-17T09:22:02;2.10;;;0.98;;
9445;SDS011;4761;49.490;10.908;2022-09-17T09:24:32;1.65;;;1.05;;
9445;SDS011;4761;49.490;10.908;2022-09-17T09:27:15;0.98;;;0.80;;
9445;SDS011;4761;49.490;10.908;2022-09-17T09:35:19;1.85;;;0.95;;
9445;SDS011;4761;49.490;10.908;2022-09-17T09:37:53;1.17;;;0.93;;
9445;SDS011;4761;49.490;10.908;2022-09-17T09:40:42;2.55;;;1.10;;
9445;SDS011;4761;49.490;10.908;2022-09-17T09:43:23;1.40;;;0.90;;
9445;SDS011;4761;49.490;10.908;2022-09-17T09:52:07;2.38;;;0.90;;
9445;SDS011;4761;49.490;10.908;2022-09-17T09:57:34;1.70;;;0.90;;
9445;SDS011;4761;49.490;10.908;2022-09-17T10:03:37;1.70;;;1.00;;
9445;SDS011;4761;49.490;10.908;2022-09-17T10:05:37;1.33;;;0.90;;
9445;SDS011;4761;49.490;10.908;2022-09-17T10:08:13;2.22;;;1.00;;
9445;SDS011;4761;49.490;10.908;2022-09-17T10:13:38;2.15;;;1.00;;
9445;SDS011;4761;49.490;10.908;2022-09-17T10:16:14;1.55;;;1.00;;
9445;SDS011;4761;49.490;10.908;2022-09-17T10:18:47;1.48;;;0.90;;
9445;SDS011;4761;49.490;10.908;2022-09-17T10:21:22;1.75;;;1.08;;
9445;SDS011;4761;49.490;10.908;2022-09-17T10:23:55;2.30;;;1.13;;
9445;SDS011;4761;49.490;10.908;2022-09-17T10:26:22;1.75;;;0.90;;
9445;SDS011;4761;49.490;10.908;2022-09-17T10:28:54;2.33;;;1.00;;
9445;SDS011;4761;49.490;10.908;2022-09-17T10:31:22;2.03;;;1.40;;
9445;SDS011;4761;49.490;10.908;2022-09-17T10:33:58;1.73;;;1.15;;
9445;SDS011;4761;49.490;10.908;2022-09-17T10:36:39;2.00;;;1.02;;
9445;SDS011;4761;49.490;10.908;2022-09-17T10:42:24;2.22;;;1.15;;
9445;SDS011;4761;49.490;10.908;2022-09-17T10:49:54;1.63;;;0.85;;
9445;SDS011;4761;49.490;10.908;2022-09-17T10:52:28;2.25;;;0.95;;
9445;SDS011;4761;49.490;10.908;2022-09-17T11:14:12;2.42;;;1.13;;
9445;SDS011;4761;49.490;10.908;2022-09-17T11:19:58;2.25;;;1.15;;
9445;SDS011;4761;49.490;10.908;2022-09-17T11:34:12;1.77;;;0.90;;
9445;SDS011;4761;49.490;10.908;2022-09-17T11:37:02;2.15;;;0.95;;
9445;SDS011;4761;49.490;10.908;2022-09-17T11:39:32;1.95;;;1.10;;
9445;SDS011;4761;49.490;10.908;2022-09-17T11:41:59;1.63;;;1.10;;
9445;SDS011;4761;49.490;10.908;2022-09-17T11:44:31;2.70;;;1.00;;
9445;SDS011;4761;49.490;10.908;2022-09-17T11:47:13;1.40;;;0.98;;
9445;SDS011;4761;49.490;10.908;2022-09-17T11:52:30;4.10;;;1.48;;
9445;SDS011;4761;49.490;10.908;2022-09-17T11:55:26;1.70;;;1.20;;
9445;SDS011;4761;49.490;10.908;2022-09-17T11:58:01;1.40;;;1.10;;
9445;SDS011;4761;49.490;10.908;2022-09-17T12:00:33;1.48;;;1.00;;
9445;SDS011;4761;49.490;10.908;2022-09-17T12:03:04;1.20;;;1.10;;
9445;SDS011;4761;49.490;10.908;2022-09-17T12:05:42;2.50;;;1.30;;
9445;SDS011;4761;49.490;10.908;2022-09-17T12:08:20;1.33;;;1.10;;
9445;SDS011;4761;49.490;10.908;2022-09-17T12:13:41;1.50;;;0.90;;
9445;SDS011;4761;49.490;10.908;2022-09-17T12:22:17;0.70;;;0.70;;
9445;SDS011;4761;49.490;10.908;2022-09-17T12:24:49;0.70;;;0.70;;
9445;SDS011;4761;49.490;10.908;2022-09-17T12:30:10;0.95;;;0.70;;
9445;SDS011;4761;49.490;10.908;2022-09-17T12:32:41;1.25;;;0.75;;
9445;SDS011;4761;49.490;10.908;2022-09-17T13:00:20;1.27;;;0.88;;
9445;SDS011;4761;49.490;10.908;2022-09-17T13:02:52;1.30;;;0.80;;
9445;SDS011;4761;49.490;10.908;2022-09-17T13:11:03;1.02;;;0.77;;
9445;SDS011;4761;49.490;10.908;2022-09-17T13:19:23;1.02;;;0.70;;
9445;SDS011;4761;49.490;10.908;2022-09-17T13:22:17;1.67;;;0.98;;
9445;SDS011;4761;49.490;10.908;2022-09-17T13:24:45;0.88;;;0.80;;
9445;SDS011;4761;49.490;10.908;2022-09-17T13:27:24;1.75;;;0.80;;
9445;SDS011;4761;49.490;10.908;2022-09-17T13:37:41;0.55;;;0.50;;
9445;SDS011;4761;49.490;10.908;2022-09-17T13:40:29;0.85;;;0.30;;
9445;SDS011;4761;49.490;10.908;2022-09-17T13:42:57;0.30;;;0.30;;
9445;SDS011;4761;49.490;10.908;2022-09-17T13:45:32;0.95;;;0.40;;
9445;SDS011;4761;49.490;10.908;2022-09-17T13:48:19;0.30;;;0.30;;
9445;SDS011;4761;49.490;10.908;2022-09-17T13:50:48;0.40;;;0.40;;
9445;SDS011;4761;49.490;10.908;2022-09-17T14:00:51;0.40;;;0.30;;
9445;SDS011;4761;49.490;10.908;2022-09-17T14:08:30;1.00;;;0.43;;
9445;SDS011;4761;49.490;10.908;2022-09-17T14:16:34;0.40;;;0.40;;
9445;SDS011;4761;49.490;10.908;2022-09-17T14:19:16;0.35;;;0.35;;
9445;SDS011;4761;49.490;10.908;2022-09-17T14:22:10;0.47;;;0.47;;
9445;SDS011;4761;49.490;10.908;2022-09-17T14:30:11;0.65;;;0.60;;
9445;SDS011;4761;49.490;10.908;2022-09-17T14:32:44;0.93;;;0.55;;
9445;SDS011;4761;49.490;10.908;2022-09-17T14:35:34;1.88;;;0.80;;
9445;SDS011;4761;49.490;10.908;2022-09-17T14:38:10;1.42;;;0.88;;
9445;SDS011;4761;49.490;10.908;2022-09-17T14:40:59;1.00;;;0.70;;
9445;SDS011;4761;49.490;10.908;2022-09-17T14:46:27;0.98;;;0.65;;
9445;SDS011;4761;49.490;10.908;2022-09-17T14:49:12;1.92;;;0.90;;
9445;SDS011;4761;49.490;10.908;2022-09-17T14:51:39;1.13;;;0.80;;
9445;SDS011;4761;49.490;10.908;2022-09-17T14:54:15;0.95;;;0.80;;
9445;SDS011;4761;49.490;10.908;2022-09-17T14:59:24;2.75;;;1.05;;
9445;SDS011;4761;49.490;10.908;2022-09-17T15:04:58;1.42;;;0.90;;
9445;SDS011;4761;49.490;10.908;2022-09-17T15:07:24;1.08;;;0.80;;
9445;SDS011;4761;49.490;10.908;2022-09-17T15:09:50;0.95;;;0.60;;
9445;SDS011;4761;49.490;10.908;2022-09-17T15:12:19;1.70;;;0.88;;
9445;SDS011;4761;49.490;10.908;2022-09-17T15:14:49;1.00;;;0.80;;
9445;SDS011;4761;49.490;10.908;2022-09-17T15:17:16;1.55;;;0.80;;
9445;SDS011;4761;49.490;10.908;2022-09-17T15:19:52;1.40;;;0.82;;
9445;SDS011;4761;49.490;10.908;2022-09-17T15:25:01;1.02;;;0.90;;
9445;SDS011;4761;49.490;10.908;2022-09-17T15:27:39;2.58;;;1.13;;
9445;SDS011;4761;49.490;10.908;2022-09-17T15:30:11;1.42;;;0.95;;
9445;SDS011;4761;49.490;10.908;2022-09-17T15:32:38;1.60;;;0.90;;
9445;SDS011;4761;49.490;10.908;2022-09-17T15:35:18;2.05;;;1.13;;
9445;SDS011;4761;49.490;10.908;2022-09-17T15:37:53;0.80;;;0.60;;
9445;SDS011;4761;49.490;10.908;2022-09-17T15:40:30;1.05;;;0.70;;
9445;SDS011;4761;49.490;10.908;2022-09-17T15:43:10;0.80;;;0.52;;
9445;SDS011;4761;49.490;10.908;2022-09-17T15:45:45;0.77;;;0.60;;
9445;SDS011;4761;49.490;10.908;2022-09-17T15:50:59;0.90;;;0.47;;
9445;SDS011;4761;49.490;10.908;2022-09-17T15:53:26;0.75;;;0.60;;
9445;SDS011;4761;49.490;10.908;2022-09-17T15:58:30;0.93;;;0.80;;
9445;SDS011;4761;49.490;10.908;2022-09-17T16:06:53;1.02;;;0.70;;
9445;SDS011;4761;49.490;10.908;2022-09-17T16:08:54;1.50;;;0.70;;
9445;SDS011;4761;49.490;10.908;2022-09-17T16:11:21;1.17;;;0.70;;
9445;SDS011;4761;49.490;10.908;2022-09-17T16:13:55;1.05;;;0.60;;
9445;SDS011;4761;49.490;10.908;2022-09-17T16:16:23;0.52;;;0.50;;
9445;SDS011;4761;49.490;10.908;2022-09-17T16:19:00;0.77;;;0.60;;
9445;SDS011;4761;49.490;10.908;2022-09-17T16:21:25;0.60;;;0.57;;
9445;SDS011;4761;49.490;10.908;2022-09-17T16:23:51;0.85;;;0.57;;
9445;SDS011;4761;49.490;10.908;2022-09-17T16:26:22;0.95;;;0.43;;
9445;SDS011;4761;49.490;10.908;2022-09-17T16:28:53;0.90;;;0.57;;
9445;SDS011;4761;49.490;10.908;2022-09-17T16:31:22;1.02;;;0.60;;
9445;SDS011;4761;49.490;10.908;2022-09-17T16:33:48;0.60;;;0.60;;
9445;SDS011;4761;49.490;10.908;2022-09-17T16:36:17;1.20;;;0.60;;
9445;SDS011;4761;49.490;10.908;2022-09-17T16:38:43;1.45;;;0.90;;
9445;SDS011;4761;49.490;10.908;2022-09-17T16:41:08;2.05;;;0.88;;
9445;SDS011;4761;49.490;10.908;2022-09-17T16:43:34;0.98;;;0.68;;
9445;SDS011;4761;49.490;10.908;2022-09-17T16:46:01;1.33;;;0.80;;
9445;SDS011;4761;49.490;10.908;2022-09-17T16:48:28;1.23;;;0.75;;
9445;SDS011;4761;49.490;10.908;2022-09-17T16:50:54;2.45;;;0.80;;
9445;SDS011;4761;49.490;10.908;2022-09-17T16:53:20;1.15;;;0.65;;
9445;SDS011;4761;49.490;10.908;2022-09-17T16:55:45;1.23;;;0.90;;
9445;SDS011;4761;49.490;10.908;2022-09-17T16:58:11;0.65;;;0.50;;
9445;SDS011;4761;49.490;10.908;2022-09-17T17:00:36;0.50;;;0.50;;
9445;SDS011;4761;49.490;10.908;2022-09-17T17:03:02;0.65;;;0.38;;
9445;SDS011;4761;49.490;10.908;2022-09-17T17:05:28;0.93;;;0.50;;
9445;SDS011;4761;49.490;10.908;2022-09-17T17:07:55;1.13;;;0.50;;
9445;SDS011;4761;49.490;10.908;2022-09-17T17:10:22;0.57;;;0.32;;
9445;SDS011;4761;49.490;10.908;2022-09-17T17:12:50;0.40;;;0.40;;
9445;SDS011;4761;49.490;10.908;2022-09-17T17:15:16;0.55;;;0.50;;
9445;SDS011;4761;49.490;10.908;2022-09-17T17:17:42;0.88;;;0.55;;
9445;SDS011;4761;49.490;10.908;2022-09-17T17:20:08;1.17;;;0.60;;
9445;SDS011;4761;49.490;10.908;2022-09-17T17:22:34;1.13;;;0.82;;
9445;SDS011;4761;49.490;10.908;2022-09-17T17:25:01;1.05;;;0.80;;
9445;SDS011;4761;49.490;10.908;2022-09-17T17:27:27;2.38;;;0.60;;
9445;SDS011;4761;49.490;10.908;2022-09-17T17:29:53;1.00;;;0.68;;
9445;SDS011;4761;49.490;10.908;2022-09-17T17:32:19;0.68;;;0.60;;
9445;SDS011;4761;49.490;10.908;2022-09-17T17:34:45;1.70;;;0.80;;
9445;SDS011;4761;49.490;10.908;2022-09-17T17:37:10;1.15;;;0.70;;
9445;SDS011;4761;49.490;10.908;2022-09-17T17:39:38;0.70;;;0.60;;
9445;SDS011;4761;49.490;10.908;2022-09-17T17:42:04;1.40;;;0.70;;
9445;SDS011;4761;49.490;10.908;2022-09-17T17:44:29;1.58;;;0.70;;
9445;SDS011;4761;49.490;10.908;2022-09-17T17:46:55;1.40;;;0.60;;
9445;SDS011;4761;49.490;10.908;2022-09-17T17:49:20;1.65;;;1.00;;
9445;SDS011;4761;49.490;10.908;2022-09-17T17:51:46;2.47;;;0.93;;
9445;SDS011;4761;49.490;10.908;2022-09-17T17:54:12;1.42;;;0.70;;
9445;SDS011;4761;49.490;10.908;2022-09-17T17:56:38;0.70;;;0.70;;
9445;SDS011;4761;49.490;10.908;2022-09-17T17:59:04;2.38;;;1.60;;
9445;SDS011;4761;49.490;10.908;2022-09-17T18:01:30;3.28;;;2.40;;
9445;SDS011;4761;49.490;10.908;2022-09-17T18:03:59;5.70;;;3.42;;
9445;SDS011;4761;49.490;10.908;2022-09-17T18:06:27;5.88;;;3.20;;
9445;SDS011;4761;49.490;10.908;2022-09-17T18:08:53;2.05;;;1.55;;
9445;SDS011;4761;49.490;10.908;2022-09-17T18:11:19;3.03;;;1.75;;
9445;SDS011;4761;49.490;10.908;2022-09-17T18:13:49;2.53;;;1.50;;
9445;SDS011;4761;49.490;10.908;2022-09-17T18:16:15;2.45;;;1.17;;
9445;SDS011;4761;49.490;10.908;2022-09-17T18:18:42;1.40;;;1.20;;
9445;SDS011;4761;49.490;10.908;2022-09-17T18:21:10;1.45;;;1.10;;
9445;SDS011;4761;49.490;10.908;2022-09-17T18:23:41;1.60;;;1.50;;
9445;SDS011;4761;49.490;10.908;2022-09-17T18:26:08;1.30;;;1.20;;
9445;SDS011;4761;49.490;10.908;2022-09-17T18:28:36;1.85;;;1.10;;
9445;SDS011;4761;49.490;10.908;2022-09-17T18:31:13;1.25;;;1.10;;
9445;SDS011;4761;49.490;10.908;2022-09-17T18:33:44;1.20;;;1.10;;
9445;SDS011;4761;49.490;10.908;2022-09-17T18:36:10;1.85;;;1.40;;
9445;SDS011;4761;49.490;10.908;2022-09-17T18:38:35;1.30;;;1.13;;
9445;SDS011;4761;49.490;10.908;2022-09-17T18:41:07;1.67;;;1.00;;
9445;SDS011;4761;49.490;10.908;2022-09-17T18:43:34;1.88;;;1.00;;
9445;SDS011;4761;49.490;10.908;2022-09-17T18:46:00;2.22;;;1.30;;
9445;SDS011;4761;49.490;10.908;2022-09-17T18:48:27;0.77;;;0.70;;
9445;SDS011;4761;49.490;10.908;2022-09-17T18:50:54;0.93;;;0.70;;
9445;SDS011;4761;49.490;10.908;2022-09-17T18:53:25;0.85;;;0.70;;
9445;SDS011;4761;49.490;10.908;2022-09-17T18:55:52;0.50;;;0.50;;
9445;SDS011;4761;49.490;10.908;2022-09-17T18:58:20;0.65;;;0.55;;
9445;SDS011;4761;49.490;10.908;2022-09-17T19:00:45;0.80;;;0.60;;